sensor_id;sensor_type;location;lat;lon;timestamp;pressure;altitude;pressure_sealevel;temperature;humidity
4705;BME280;2366;51.332;6.610;2023-08-06T00:01:46;100261.59;;;20.68;65.98
4705;BME280;2366;51.332;6.610;2023-08-06T00:04:12;100270.19;;;20.64;66.00
4705;BME280;2366;51.332;6.610;2023-08-06T00:06:37;100259.78;;;20.61;66.12
4705;BME280;2366;51.332;6.610;2023-08-06T00:09:02;100262.63;;;20.59;66.12
4705;BME280;2366;51.332;6.610;2023-08-06T00:11:28;100253.00;;;20.57;66.67
4705;BME280;2366;51.332;6.610;2023-08-06T00:13:53;100253.72;;;20.59;66.76
4705;BME280;2366;51.332;6.610;2023-08-06T00:16:18;100253.56;;;20.60;66.66
4705;BME280;2366;51.332;6.610;2023-08-06T00:18:44;100246.47;;;20.59;66.81
4705;BME280;2366;51.332;6.610;2023-08-06T00:21:09;100242.94;;;20.59;66.79
4705;BME280;2366;51.332;6.610;2023-08-06T00:23:37;100240.53;;;20.56;66.69
4705;BME280;2366;51.332;6.610;2023-08-06T00:26:02;100239.72;;;20.55;66.64
4705;BME280;2366;51.332;6.610;2023-08-06T00:28:27;100243.59;;;20.52;66.96
4705;BME280;2366;51.332;6.610;2023-08-06T00:30:56;100239.22;;;20.51;66.91
4705;BME280;2366;51.332;6.610;2023-08-06T00:33:22;100236.34;;;20.53;67.04
4705;BME280;2366;51.332;6.610;2023-08-06T00:35:48;100226.75;;;20.50;66.47
4705;BME280;2366;51.332;6.610;2023-08-06T00:38:13;100234.84;;;20.50;66.69
4705;BME280;2366;51.332;6.610;2023-08-06T00:40:39;100223.56;;;20.47;67.05
4705;BME280;2366;51.332;6.610;2023-08-06T00:43:04;100231.81;;;20.45;66.85
4705;BME280;2366;51.332;6.610;2023-08-06T00:45:30;100234.53;;;20.45;66.53
4705;BME280;2366;51.332;6.610;2023-08-06T00:47:56;100233.84;;;20.43;66.70
4705;BME280;2366;51.332;6.610;2023-08-06T00:50:21;100224.44;;;20.47;67.07
4705;BME280;2366;51.332;6.610;2023-08-06T00:52:48;100235.00;;;20.49;66.76
4705;BME280;2366;51.332;6.610;2023-08-06T00:55:15;100227.59;;;20.51;67.08
4705;BME280;2366;51.332;6.610;2023-08-06T00:57:41;100228.25;;;20.53;67.06
4705;BME280;2366;51.332;6.610;2023-08-06T01:00:06;100232.97;;;20.51;67.12
4705;BME280;2366;51.332;6.610;2023-08-06T01:02:32;100235.16;;;20.56;67.32
4705;BME280;2366;51.332;6.610;2023-08-06T01:04:58;100241.25;;;20.58;67.14
4705;BME280;2366;51.332;6.610;2023-08-06T01:08:02;100233.16;;;20.58;66.92
4705;BME280;2366;51.332;6.610;2023-08-06T01:10:45;100228.09;;;20.55;66.83
4705;BME280;2366;51.332;6.610;2023-08-06T01:13:48;100230.81;;;20.63;66.69
4705;BME280;2366;51.332;6.610;2023-08-06T01:16:18;100228.28;;;20.61;66.55
4705;BME280;2366;51.332;6.610;2023-08-06T01:18:44;100223.06;;;20.60;66.25
4705;BME280;2366;51.332;6.610;2023-08-06T01:21:15;100213.63;;;20.56;65.39
4705;BME280;2366;51.332;6.610;2023-08-06T01:23:41;100217.00;;;20.58;65.84
4705;BME280;2366;51.332;6.610;2023-08-06T01:27:08;100224.09;;;20.59;65.88
4705;BME280;2366;51.332;6.610;2023-08-06T01:29:43;100224.56;;;20.62;65.45
4705;BME280;2366;51.332;6.610;2023-08-06T01:32:11;100226.78;;;20.59;65.68
4705;BME280;2366;51.332;6.610;2023-08-06T01:34:39;100218.34;;;20.62;65.47
4705;BME280;2366;51.332;6.610;2023-08-06T01:37:05;100218.03;;;20.65;65.50
4705;BME280;2366;51.332;6.610;2023-08-06T01:39:33;100217.84;;;20.66;65.38
4705;BME280;2366;51.332;6.610;2023-08-06T01:41:58;100215.34;;;20.65;65.22
4705;BME280;2366;51.332;6.610;2023-08-06T01:44:24;100215.34;;;20.65;65.22
4705;BME280;2366;51.332;6.610;2023-08-06T01:46:49;100220.38;;;20.60;65.15
4705;BME280;2366;51.332;6.610;2023-08-06T01:49:14;100215.00;;;20.51;63.54
4705;BME280;2366;51.332;6.610;2023-08-06T01:51:40;100210.25;;;20.53;65.29
4705;BME280;2366;51.332;6.610;2023-08-06T01:54:05;100215.63;;;20.53;65.18
4705;BME280;2366;51.332;6.610;2023-08-06T01:56:31;100207.25;;;20.57;65.14
4705;BME280;2366;51.332;6.610;2023-08-06T01:58:56;100210.47;;;20.60;65.21
4705;BME280;2366;51.332;6.610;2023-08-06T02:01:27;100197.47;;;20.64;65.16
4705;BME280;2366;51.332;6.610;2023-08-06T02:03:52;100203.91;;;20.63;65.17
4705;BME280;2366;51.332;6.610;2023-08-06T02:06:18;100200.03;;;20.57;64.07
4705;BME280;2366;51.332;6.610;2023-08-06T02:08:43;100202.53;;;20.50;65.78
4705;BME280;2366;51.332;6.610;2023-08-06T02:11:09;100204.72;;;20.47;66.05
4705;BME280;2366;51.332;6.610;2023-08-06T02:13:34;100199.34;;;20.47;66.22
4705;BME280;2366;51.332;6.610;2023-08-06T02:16:01;100204.91;;;20.45;66.69
4705;BME280;2366;51.332;6.610;2023-08-06T02:18:26;100202.72;;;20.41;66.92
4705;BME280;2366;51.332;6.610;2023-08-06T02:20:58;100200.88;;;20.41;67.40
4705;BME280;2366;51.332;6.610;2023-08-06T02:23:24;100195.50;;;20.41;67.61
4705;BME280;2366;51.332;6.610;2023-08-06T02:26:00;100202.22;;;20.37;66.50
4705;BME280;2366;51.332;6.610;2023-08-06T02:28:26;100197.19;;;20.26;67.65
4705;BME280;2366;51.332;6.610;2023-08-06T02:30:52;100195.50;;;20.25;67.60
4705;BME280;2366;51.332;6.610;2023-08-06T02:33:17;100192.81;;;20.25;67.15
4705;BME280;2366;51.332;6.610;2023-08-06T02:35:42;100193.00;;;20.15;67.41
4705;BME280;2366;51.332;6.610;2023-08-06T02:38:08;100186.25;;;20.11;67.44
4705;BME280;2366;51.332;6.610;2023-08-06T02:40:33;100184.72;;;20.17;67.69
4705;BME280;2366;51.332;6.610;2023-08-06T02:42:58;100183.06;;;20.24;67.90
4705;BME280;2366;51.332;6.610;2023-08-06T02:45:24;100178.84;;;20.29;67.92
4705;BME280;2366;51.332;6.610;2023-08-06T02:47:49;100177.31;;;20.27;67.71
4705;BME280;2366;51.332;6.610;2023-08-06T02:50:14;100180.03;;;20.27;67.39
4705;BME280;2366;51.332;6.610;2023-08-06T02:52:40;100176.13;;;20.29;68.00
4705;BME280;2366;51.332;6.610;2023-08-06T02:55:06;100173.97;;;20.33;67.83
4705;BME280;2366;51.332;6.610;2023-08-06T02:57:32;100173.28;;;20.31;67.84
4705;BME280;2366;51.332;6.610;2023-08-06T02:59:57;100179.69;;;20.30;68.06
4705;BME280;2366;51.332;6.610;2023-08-06T03:02:22;100175.97;;;20.31;67.96
4705;BME280;2366;51.332;6.610;2023-08-06T03:04:48;100167.06;;;20.30;68.08
4705;BME280;2366;51.332;6.610;2023-08-06T03:07:13;100175.31;;;20.29;68.05
4705;BME280;2366;51.332;6.610;2023-08-06T03:09:38;100166.25;;;20.30;68.35
4705;BME280;2366;51.332;6.610;2023-08-06T03:12:04;100170.44;;;20.33;68.36
4705;BME280;2366;51.332;6.610;2023-08-06T03:14:29;100170.75;;;20.29;68.24
4705;BME280;2366;51.332;6.610;2023-08-06T03:16:55;100164.91;;;20.26;68.20
4705;BME280;2366;51.332;6.610;2023-08-06T03:19:20;100157.16;;;20.31;67.95
4705;BME280;2366;51.332;6.610;2023-08-06T03:21:45;100164.22;;;20.32;68.28
4705;BME280;2366;51.332;6.610;2023-08-06T03:24:13;100157.16;;;20.31;68.44
4705;BME280;2366;51.332;6.610;2023-08-06T03:26:38;100163.34;;;20.31;68.13
4705;BME280;2366;51.332;6.610;2023-08-06T03:29:04;100151.75;;;20.31;68.35
4705;BME280;2366;51.332;6.610;2023-08-06T03:31:29;100156.31;;;20.30;68.33
4705;BME280;2366;51.332;6.610;2023-08-06T03:33:54;100155.94;;;20.34;68.16
4705;BME280;2366;51.332;6.610;2023-08-06T03:36:20;100155.78;;;20.35;68.15
4705;BME280;2366;51.332;6.610;2023-08-06T03:38:45;100163.88;;;20.35;68.02
4705;BME280;2366;51.332;6.610;2023-08-06T03:41:10;100159.16;;;20.37;68.05
4705;BME280;2366;51.332;6.610;2023-08-06T03:43:36;100153.78;;;20.37;68.03
4705;BME280;2366;51.332;6.610;2023-08-06T03:46:01;100162.84;;;20.36;67.65
4705;BME280;2366;51.332;6.610;2023-08-06T03:48:27;100155.94;;;20.34;67.66
4705;BME280;2366;51.332;6.610;2023-08-06T03:50:52;100151.97;;;20.21;67.54
4705;BME280;2366;51.332;6.610;2023-08-06T03:53:17;100156.31;;;20.14;67.56
4705;BME280;2366;51.332;6.610;2023-08-06T03:55:43;100152.13;;;20.11;67.80
4705;BME280;2366;51.332;6.610;2023-08-06T03:58:08;100155.16;;;20.08;67.89
4705;BME280;2366;51.332;6.610;2023-08-06T04:00:33;100150.78;;;19.99;67.78
4705;BME280;2366;51.332;6.610;2023-08-06T04:02:59;100150.09;;;19.97;68.18
4705;BME280;2366;51.332;6.610;2023-08-06T04:05:24;100152.97;;;19.96;68.10
4705;BME280;2366;51.332;6.610;2023-08-06T04:07:49;100151.13;;;19.88;68.42
4705;BME280;2366;51.332;6.610;2023-08-06T04:10:15;100155.16;;;19.84;68.72
4705;BME280;2366;51.332;6.610;2023-08-06T04:12:40;100147.94;;;19.84;68.78
4705;BME280;2366;51.332;6.610;2023-08-06T04:15:06;100155.81;;;19.94;69.04
4705;BME280;2366;51.332;6.610;2023-08-06T04:17:32;100150.28;;;19.96;68.86
4705;BME280;2366;51.332;6.610;2023-08-06T04:19:57;100152.16;;;19.95;68.78
4705;BME280;2366;51.332;6.610;2023-08-06T04:22:24;100154.84;;;19.95;68.86
4705;BME280;2366;51.332;6.610;2023-08-06T04:24:50;100153.47;;;19.99;69.20
4705;BME280;2366;51.332;6.610;2023-08-06T04:27:16;100152.63;;;19.99;68.99
4705;BME280;2366;51.332;6.610;2023-08-06T04:29:42;100152.97;;;20.04;69.09
4705;BME280;2366;51.332;6.610;2023-08-06T04:32:09;100152.28;;;20.10;68.95
4705;BME280;2366;51.332;6.610;2023-08-06T04:34:35;100157.19;;;20.15;69.20
4705;BME280;2366;51.332;6.610;2023-08-06T04:37:01;100152.44;;;20.17;68.70
4705;BME280;2366;51.332;6.610;2023-08-06T04:39:27;100155.47;;;20.14;68.81
4705;BME280;2366;51.332;6.610;2023-08-06T04:41:52;100155.47;;;20.14;68.69
4705;BME280;2366;51.332;6.610;2023-08-06T04:44:18;100161.88;;;20.13;68.60
4705;BME280;2366;51.332;6.610;2023-08-06T04:46:44;100153.31;;;20.09;68.28
4705;BME280;2366;51.332;6.610;2023-08-06T04:49:09;100157.84;;;20.08;68.64
4705;BME280;2366;51.332;6.610;2023-08-06T04:51:35;100159.00;;;20.14;68.69
4705;BME280;2366;51.332;6.610;2023-08-06T04:54:00;100158.50;;;20.19;68.58
4705;BME280;2366;51.332;6.610;2023-08-06T04:56:26;100160.34;;;20.26;68.70
4705;BME280;2366;51.332;6.610;2023-08-06T04:58:51;100161.69;;;20.30;68.71
4705;BME280;2366;51.332;6.610;2023-08-06T05:01:16;100154.75;;;20.36;68.47
4705;BME280;2366;51.332;6.610;2023-08-06T05:03:42;100157.97;;;20.48;68.46
4705;BME280;2366;51.332;6.610;2023-08-06T05:06:07;100157.44;;;20.52;68.51
4705;BME280;2366;51.332;6.610;2023-08-06T05:08:33;100163.00;;;20.59;68.67
4705;BME280;2366;51.332;6.610;2023-08-06T05:10:58;100165.69;;;20.59;67.88
4705;BME280;2366;51.332;6.610;2023-08-06T05:13:23;100165.34;;;20.62;67.88
4705;BME280;2366;51.332;6.610;2023-08-06T05:15:50;100167.88;;;20.64;67.84
4705;BME280;2366;51.332;6.610;2023-08-06T05:18:15;100165.50;;;20.69;67.57
4705;BME280;2366;51.332;6.610;2023-08-06T05:20:42;100168.00;;;20.70;67.56
4705;BME280;2366;51.332;6.610;2023-08-06T05:23:07;100170.53;;;20.80;67.61
4705;BME280;2366;51.332;6.610;2023-08-06T05:25:39;100169.13;;;20.92;67.34
4705;BME280;2366;51.332;6.610;2023-08-06T05:28:05;100173.63;;;21.00;67.10
4705;BME280;2366;51.332;6.610;2023-08-06T05:30:30;100180.13;;;21.14;66.83
4705;BME280;2366;51.332;6.610;2023-08-06T05:32:56;100178.38;;;21.29;66.16
4705;BME280;2366;51.332;6.610;2023-08-06T05:35:22;100180.03;;;21.39;65.12
4705;BME280;2366;51.332;6.610;2023-08-06T05:37:47;100180.47;;;21.50;63.99
4705;BME280;2366;51.332;6.610;2023-08-06T05:40:13;100182.06;;;21.68;63.01
4705;BME280;2366;51.332;6.610;2023-08-06T05:42:40;100194.47;;;22.00;63.67
4705;BME280;2366;51.332;6.610;2023-08-06T05:45:05;100187.94;;;22.55;60.79
4705;BME280;2366;51.332;6.610;2023-08-06T05:47:31;100190.16;;;22.96;60.55
4705;BME280;2366;51.332;6.610;2023-08-06T05:49:56;100195.13;;;23.08;59.21
4705;BME280;2366;51.332;6.610;2023-08-06T05:52:22;100189.91;;;23.21;59.04
4705;BME280;2366;51.332;6.610;2023-08-06T05:54:47;100189.03;;;23.93;58.32
4705;BME280;2366;51.332;6.610;2023-08-06T05:57:12;100193.84;;;23.76;56.16
4705;BME280;2366;51.332;6.610;2023-08-06T05:59:38;100196.56;;;23.40;57.01
4705;BME280;2366;51.332;6.610;2023-08-06T06:02:03;100198.75;;;23.15;56.10
4705;BME280;2366;51.332;6.610;2023-08-06T06:04:29;100196.91;;;23.01;58.43
4705;BME280;2366;51.332;6.610;2023-08-06T06:06:54;100196.69;;;22.87;59.55
4705;BME280;2366;51.332;6.610;2023-08-06T06:09:20;100203.75;;;22.59;59.77
4705;BME280;2366;51.332;6.610;2023-08-06T06:11:45;100207.28;;;22.59;60.19
4705;BME280;2366;51.332;6.610;2023-08-06T06:14:10;100200.84;;;22.45;58.05
4705;BME280;2366;51.332;6.610;2023-08-06T06:16:36;100204.56;;;22.29;60.87
4705;BME280;2366;51.332;6.610;2023-08-06T06:19:01;100212.00;;;22.42;61.07
4705;BME280;2366;51.332;6.610;2023-08-06T06:21:26;100208.88;;;22.83;61.14
4705;BME280;2366;51.332;6.610;2023-08-06T06:23:52;100212.41;;;22.98;59.88
4705;BME280;2366;51.332;6.610;2023-08-06T06:26:18;100218.31;;;22.87;59.32
4705;BME280;2366;51.332;6.610;2023-08-06T06:28:43;100223.44;;;22.82;59.98
4705;BME280;2366;51.332;6.610;2023-08-06T06:31:09;100221.66;;;22.89;58.80
4705;BME280;2366;51.332;6.610;2023-08-06T06:33:34;100231.06;;;22.93;59.45
4705;BME280;2366;51.332;6.610;2023-08-06T06:36:00;100230.69;;;22.96;59.13
4705;BME280;2366;51.332;6.610;2023-08-06T06:38:25;100236.09;;;22.96;58.71
4705;BME280;2366;51.332;6.610;2023-08-06T06:41:00;100235.75;;;23.00;58.60
4705;BME280;2366;51.332;6.610;2023-08-06T06:43:25;100237.78;;;22.97;58.30
4705;BME280;2366;51.332;6.610;2023-08-06T06:45:56;100232.84;;;22.86;59.54
4705;BME280;2366;51.332;6.610;2023-08-06T06:48:23;100233.22;;;22.98;59.10
4705;BME280;2366;51.332;6.610;2023-08-06T06:50:48;100231.84;;;23.17;57.48
4705;BME280;2366;51.332;6.610;2023-08-06T06:53:14;100232.69;;;23.17;58.48
4705;BME280;2366;51.332;6.610;2023-08-06T06:55:39;100234.81;;;23.22;58.82
4705;BME280;2366;51.332;6.610;2023-08-06T06:58:05;100237.41;;;23.30;58.85
4705;BME280;2366;51.332;6.610;2023-08-06T07:00:30;100233.09;;;23.51;58.63
4705;BME280;2366;51.332;6.610;2023-08-06T07:02:55;100239.09;;;23.68;57.47
4705;BME280;2366;51.332;6.610;2023-08-06T07:05:21;100229.81;;;23.92;57.05
4705;BME280;2366;51.332;6.610;2023-08-06T07:07:46;100240.00;;;24.11;56.44
4705;BME280;2366;51.332;6.610;2023-08-06T07:10:11;100230.72;;;24.42;55.72
4705;BME280;2366;51.332;6.610;2023-08-06T07:12:37;100234.56;;;24.54;54.43
4705;BME280;2366;51.332;6.610;2023-08-06T07:15:05;100239.66;;;24.64;54.15
4705;BME280;2366;51.332;6.610;2023-08-06T07:17:31;100244.72;;;24.74;51.99
4705;BME280;2366;51.332;6.610;2023-08-06T07:19:56;100242.97;;;24.59;53.75
4705;BME280;2366;51.332;6.610;2023-08-06T07:22:21;100251.63;;;24.27;54.95
4705;BME280;2366;51.332;6.610;2023-08-06T07:24:47;100243.78;;;24.60;54.40
4705;BME280;2366;51.332;6.610;2023-08-06T07:27:12;100246.97;;;24.98;53.00
4705;BME280;2366;51.332;6.610;2023-08-06T07:29:37;100254.44;;;25.79;52.67
4705;BME280;2366;51.332;6.610;2023-08-06T07:32:03;100259.16;;;26.79;50.25
4705;BME280;2366;51.332;6.610;2023-08-06T07:34:28;100259.97;;;28.03;46.08
4705;BME280;2366;51.332;6.610;2023-08-06T07:36:54;100252.16;;;29.07;44.51
4705;BME280;2366;51.332;6.610;2023-08-06T07:39:19;100252.09;;;28.95;44.10
4705;BME280;2366;51.332;6.610;2023-08-06T07:41:44;100253.66;;;28.09;44.43
4705;BME280;2366;51.332;6.610;2023-08-06T07:44:11;100257.59;;;27.16;46.79
4705;BME280;2366;51.332;6.610;2023-08-06T07:46:36;100249.56;;;26.70;47.61
4705;BME280;2366;51.332;6.610;2023-08-06T07:49:02;100253.84;;;27.11;48.57
4705;BME280;2366;51.332;6.610;2023-08-06T07:51:27;100258.66;;;28.12;45.97
4705;BME280;2366;51.332;6.610;2023-08-06T07:53:53;100251.78;;;28.35;44.63
4705;BME280;2366;51.332;6.610;2023-08-06T07:56:18;100254.03;;;27.74;43.69
4705;BME280;2366;51.332;6.610;2023-08-06T07:58:44;100255.75;;;27.03;47.18
4705;BME280;2366;51.332;6.610;2023-08-06T08:01:09;100242.84;;;26.79;46.37
4705;BME280;2366;51.332;6.610;2023-08-06T08:03:34;100252.69;;;26.60;47.53
4705;BME280;2366;51.332;6.610;2023-08-06T08:06:00;100254.44;;;27.19;47.60
4705;BME280;2366;51.332;6.610;2023-08-06T08:08:25;100251.25;;;28.51;44.73
4705;BME280;2366;51.332;6.610;2023-08-06T08:10:51;100251.50;;;29.12;41.71
4705;BME280;2366;51.332;6.610;2023-08-06T08:13:16;100252.38;;;29.05;42.05
4705;BME280;2366;51.332;6.610;2023-08-06T08:15:41;100254.91;;;29.07;40.97
4705;BME280;2366;51.332;6.610;2023-08-06T08:18:07;100256.41;;;28.02;43.31
4705;BME280;2366;51.332;6.610;2023-08-06T08:20:33;100252.69;;;27.52;45.27
4705;BME280;2366;51.332;6.610;2023-08-06T08:23:00;100255.94;;;27.09;45.85
4705;BME280;2366;51.332;6.610;2023-08-06T08:25:26;100261.28;;;26.57;46.55
4705;BME280;2366;51.332;6.610;2023-08-06T08:27:53;100265.28;;;25.79;47.97
4705;BME280;2366;51.332;6.610;2023-08-06T08:30:19;100268.44;;;25.35;49.65
4705;BME280;2366;51.332;6.610;2023-08-06T08:32:44;100262.34;;;24.91;50.84
4705;BME280;2366;51.332;6.610;2023-08-06T08:35:10;100264.84;;;24.93;51.41
4705;BME280;2366;51.332;6.610;2023-08-06T08:37:38;100266.94;;;24.91;51.78
4705;BME280;2366;51.332;6.610;2023-08-06T08:40:05;100269.91;;;25.02;51.75
4705;BME280;2366;51.332;6.610;2023-08-06T08:42:30;100263.91;;;25.07;51.76
4705;BME280;2366;51.332;6.610;2023-08-06T08:44:56;100269.06;;;25.02;53.09
4705;BME280;2366;51.332;6.610;2023-08-06T08:47:22;100273.97;;;24.85;51.71
4705;BME280;2366;51.332;6.610;2023-08-06T08:49:52;100273.13;;;25.54;53.83
4705;BME280;2366;51.332;6.610;2023-08-06T08:52:20;100276.88;;;26.08;52.59
4705;BME280;2366;51.332;6.610;2023-08-06T08:54:47;100275.19;;;25.94;51.00
4705;BME280;2366;51.332;6.610;2023-08-06T08:57:16;100275.50;;;25.77;51.33
4705;BME280;2366;51.332;6.610;2023-08-06T08:59:42;100284.47;;;26.59;50.24
4705;BME280;2366;51.332;6.610;2023-08-06T09:02:10;100277.44;;;27.37;49.50
4705;BME280;2366;51.332;6.610;2023-08-06T09:04:36;100280.69;;;28.04;48.19
4705;BME280;2366;51.332;6.610;2023-08-06T09:07:03;100289.13;;;28.27;46.73
4705;BME280;2366;51.332;6.610;2023-08-06T09:09:34;100286.88;;;27.79;47.38
4705;BME280;2366;51.332;6.610;2023-08-06T09:12:15;100296.72;;;27.09;47.67
4705;BME280;2366;51.332;6.610;2023-08-06T09:14:41;100289.25;;;26.44;49.21
4705;BME280;2366;51.332;6.610;2023-08-06T09:17:07;100293.75;;;25.90;50.53
4705;BME280;2366;51.332;6.610;2023-08-06T09:19:33;100297.78;;;25.59;51.50
4705;BME280;2366;51.332;6.610;2023-08-06T09:21:58;100293.31;;;25.38;52.01
4705;BME280;2366;51.332;6.610;2023-08-06T09:24:23;100299.81;;;25.44;52.82
4705;BME280;2366;51.332;6.610;2023-08-06T09:26:49;100300.22;;;25.48;52.21
4705;BME280;2366;51.332;6.610;2023-08-06T09:29:14;100306.28;;;25.15;52.61
4705;BME280;2366;51.332;6.610;2023-08-06T09:31:45;100304.19;;;24.82;53.33
4705;BME280;2366;51.332;6.610;2023-08-06T09:36:41;100308.25;;;23.70;57.00
4705;BME280;2366;51.332;6.610;2023-08-06T09:39:16;100305.50;;;23.34;58.65
4705;BME280;2366;51.332;6.610;2023-08-06T09:41:42;100318.34;;;23.17;59.96
4705;BME280;2366;51.332;6.610;2023-08-06T09:44:27;100316.81;;;23.00;60.86
4705;BME280;2366;51.332;6.610;2023-08-06T09:46:54;100322.94;;;22.93;61.31
4705;BME280;2366;51.332;6.610;2023-08-06T09:49:25;100320.16;;;22.87;61.65
4705;BME280;2366;51.332;6.610;2023-08-06T09:51:52;100331.13;;;22.85;62.03
4705;BME280;2366;51.332;6.610;2023-08-06T09:54:22;100328.72;;;22.90;62.11
4705;BME280;2366;51.332;6.610;2023-08-06T09:56:48;100334.88;;;22.84;62.25
4705;BME280;2366;51.332;6.610;2023-08-06T09:59:14;100333.06;;;22.76;62.65
4705;BME280;2366;51.332;6.610;2023-08-06T10:01:41;100330.31;;;22.62;62.55
4705;BME280;2366;51.332;6.610;2023-08-06T10:04:06;100326.38;;;22.49;61.30
4705;BME280;2366;51.332;6.610;2023-08-06T10:06:37;100349.47;;;22.29;63.42
4705;BME280;2366;51.332;6.610;2023-08-06T10:09:05;100342.56;;;22.26;63.81
4705;BME280;2366;51.332;6.610;2023-08-06T10:11:31;100358.91;;;22.33;63.04
4705;BME280;2366;51.332;6.610;2023-08-06T10:14:24;100358.22;;;22.31;63.09
4705;BME280;2366;51.332;6.610;2023-08-06T10:16:51;100346.78;;;22.29;62.61
4705;BME280;2366;51.332;6.610;2023-08-06T10:19:17;100355.78;;;22.13;62.92
4705;BME280;2366;51.332;6.610;2023-08-06T10:22:09;100357.66;;;22.12;63.08
4705;BME280;2366;51.332;6.610;2023-08-06T10:24:53;100361.84;;;21.84;63.12
4705;BME280;2366;51.332;6.610;2023-08-06T10:27:29;100360.41;;;22.04;63.77
4705;BME280;2366;51.332;6.610;2023-08-06T10:30:29;100368.00;;;22.01;62.47
4705;BME280;2366;51.332;6.610;2023-08-06T10:33:00;100380.22;;;21.88;63.10
4705;BME280;2366;51.332;6.610;2023-08-06T10:35:47;100382.78;;;21.82;63.42
4705;BME280;2366;51.332;6.610;2023-08-06T10:38:22;100381.63;;;21.76;63.28
4705;BME280;2366;51.332;6.610;2023-08-06T10:43:35;100388.50;;;21.79;62.76
4705;BME280;2366;51.332;6.610;2023-08-06T10:46:04;100384.84;;;21.71;62.12
4705;BME280;2366;51.332;6.610;2023-08-06T10:48:35;100395.03;;;21.45;62.54
4705;BME280;2366;51.332;6.610;2023-08-06T10:51:02;100398.19;;;21.40;62.04
4705;BME280;2366;51.332;6.610;2023-08-06T10:53:27;100401.09;;;21.39;62.69
4705;BME280;2366;51.332;6.610;2023-08-06T10:55:53;100405.81;;;21.28;62.77
4705;BME280;2366;51.332;6.610;2023-08-06T10:58:18;100409.50;;;21.36;62.72
4705;BME280;2366;51.332;6.610;2023-08-06T11:00:43;100409.34;;;21.37;62.52
4705;BME280;2366;51.332;6.610;2023-08-06T11:03:09;100417.44;;;21.37;62.81
4705;BME280;2366;51.332;6.610;2023-08-06T11:05:35;100413.25;;;21.18;63.27
4705;BME280;2366;51.332;6.610;2023-08-06T11:08:01;100425.88;;;21.09;63.79
4705;BME280;2366;51.332;6.610;2023-08-06T11:10:27;100421.50;;;21.17;63.65
4705;BME280;2366;51.332;6.610;2023-08-06T11:12:52;100428.09;;;21.06;64.07
4705;BME280;2366;51.332;6.610;2023-08-06T11:15:20;100429.75;;;21.23;64.65
4705;BME280;2366;51.332;6.610;2023-08-06T11:17:46;100427.53;;;21.19;64.35
4705;BME280;2366;51.332;6.610;2023-08-06T11:20:11;100433.44;;;21.22;64.89
4705;BME280;2366;51.332;6.610;2023-08-06T11:22:37;100437.00;;;21.06;65.31
4705;BME280;2366;51.332;6.610;2023-08-06T11:25:03;100431.09;;;20.95;65.53
4705;BME280;2366;51.332;6.610;2023-08-06T11:27:29;100432.44;;;20.99;66.23
4705;BME280;2366;51.332;6.610;2023-08-06T11:29:55;100436.66;;;21.09;66.54
4705;BME280;2366;51.332;6.610;2023-08-06T11:32:20;100441.53;;;21.14;66.52
4705;BME280;2366;51.332;6.610;2023-08-06T11:34:45;100440.38;;;21.08;66.65
4705;BME280;2366;51.332;6.610;2023-08-06T11:37:11;100439.19;;;21.11;66.83
4705;BME280;2366;51.332;6.610;2023-08-06T11:39:37;100445.94;;;21.15;66.13
4705;BME280;2366;51.332;6.610;2023-08-06T11:42:04;100440.03;;;21.28;66.04
4705;BME280;2366;51.332;6.610;2023-08-06T11:44:37;100456.19;;;21.36;65.56
4705;BME280;2366;51.332;6.610;2023-08-06T11:47:04;100452.81;;;21.26;64.78
4705;BME280;2366;51.332;6.610;2023-08-06T11:49:48;100466.47;;;21.32;66.42
4705;BME280;2366;51.332;6.610;2023-08-06T11:52:22;100463.94;;;21.06;65.38
4705;BME280;2366;51.332;6.610;2023-08-06T11:57:25;100464.59;;;21.25;65.73
4705;BME280;2366;51.332;6.610;2023-08-06T11:59:50;100465.13;;;21.12;65.52
4705;BME280;2366;51.332;6.610;2023-08-06T12:02:16;100478.59;;;21.12;65.62
4705;BME280;2366;51.332;6.610;2023-08-06T12:05:03;100482.63;;;20.91;66.09
4705;BME280;2366;51.332;6.610;2023-08-06T12:07:30;100479.09;;;20.91;65.79
4705;BME280;2366;51.332;6.610;2023-08-06T12:09:57;100487.69;;;20.86;66.29
4705;BME280;2366;51.332;6.610;2023-08-06T12:12:23;100484.97;;;20.78;66.63
4705;BME280;2366;51.332;6.610;2023-08-06T12:14:48;100487.31;;;20.81;67.05
4705;BME280;2366;51.332;6.610;2023-08-06T12:17:14;100489.63;;;20.60;67.36
4705;BME280;2366;51.332;6.610;2023-08-06T12:19:39;100494.50;;;20.56;67.91
4705;BME280;2366;51.332;6.610;2023-08-06T12:22:04;100492.28;;;20.51;68.31
4705;BME280;2366;51.332;6.610;2023-08-06T12:24:30;100500.53;;;20.50;67.42
4705;BME280;2366;51.332;6.610;2023-08-06T12:26:57;100503.09;;;20.60;68.48
4705;BME280;2366;51.332;6.610;2023-08-06T12:29:23;100501.75;;;20.64;68.37
4705;BME280;2366;51.332;6.610;2023-08-06T12:31:48;100499.69;;;20.49;67.49
4705;BME280;2366;51.332;6.610;2023-08-06T12:34:14;100499.31;;;20.44;69.29
4705;BME280;2366;51.332;6.610;2023-08-06T12:36:40;100495.31;;;20.57;69.04
4705;BME280;2366;51.332;6.610;2023-08-06T12:39:05;100501.03;;;20.53;69.10
4705;BME280;2366;51.332;6.610;2023-08-06T12:41:30;100509.09;;;20.53;69.07
4705;BME280;2366;51.332;6.610;2023-08-06T12:43:56;100505.56;;;20.53;69.29
4705;BME280;2366;51.332;6.610;2023-08-06T12:46:21;100509.09;;;20.45;69.36
4705;BME280;2366;51.332;6.610;2023-08-06T12:48:47;100515.97;;;20.40;69.01
4705;BME280;2366;51.332;6.610;2023-08-06T12:51:13;100519.53;;;20.48;69.26
4705;BME280;2366;51.332;6.610;2023-08-06T12:53:39;100520.38;;;20.49;69.31
4705;BME280;2366;51.332;6.610;2023-08-06T12:56:04;100515.22;;;20.64;68.89
4705;BME280;2366;51.332;6.610;2023-08-06T12:58:30;100525.66;;;20.59;68.95
4705;BME280;2366;51.332;6.610;2023-08-06T13:00:56;100530.28;;;20.48;68.66
4705;BME280;2366;51.332;6.610;2023-08-06T13:03:21;100547.75;;;20.36;68.81
4705;BME280;2366;51.332;6.610;2023-08-06T13:05:47;100541.91;;;20.49;69.80
4705;BME280;2366;51.332;6.610;2023-08-06T13:08:12;100539.81;;;20.61;68.94
4705;BME280;2366;51.332;6.610;2023-08-06T13:10:37;100538.53;;;20.47;69.08
4705;BME280;2366;51.332;6.610;2023-08-06T13:13:03;100541.47;;;20.62;68.90
4705;BME280;2366;51.332;6.610;2023-08-06T13:15:29;100547.72;;;20.70;68.37
4705;BME280;2366;51.332;6.610;2023-08-06T13:17:54;100545.03;;;20.70;68.50